createdAt,value
2018-05-12T00:00:40.218Z,15.44
2018-05-12T00:02:33.438Z,15.45
2018-05-12T00:03:32.605Z,15.47
2018-05-12T00:05:27.176Z,15.38
2018-05-12T00:06:26.036Z,15.33
2018-05-12T00:08:19.308Z,15.30
2018-05-12T00:09:18.862Z,15.25
2018-05-12T00:11:12.590Z,15.12
2018-05-12T00:12:12.178Z,15.15
2018-05-12T00:14:05.756Z,15.14
2018-05-12T00:15:05.642Z,15.01
2018-05-12T00:17:00.440Z,14.99
2018-05-12T00:17:58.958Z,15.01
2018-05-12T00:19:52.778Z,14.93
2018-05-12T00:20:52.405Z,14.87
2018-05-12T00:22:45.639Z,14.90
2018-05-12T00:23:45.166Z,14.86
2018-05-12T00:25:43.376Z,14.89
2018-05-12T00:26:43.040Z,14.85
2018-05-12T00:28:36.884Z,14.87
2018-05-12T00:29:37.260Z,14.92
2018-05-12T00:31:30.210Z,14.97
2018-05-12T00:32:30.227Z,14.92
2018-05-12T00:34:24.645Z,14.99
2018-05-12T00:35:23.216Z,15.01
2018-05-12T00:37:16.891Z,14.97
2018-05-12T00:38:16.493Z,14.99
2018-05-12T00:40:10.782Z,15.10
2018-05-12T00:41:09.862Z,15.11
2018-05-12T00:43:03.756Z,15.11
2018-05-12T00:44:03.647Z,15.10
2018-05-12T00:45:57.659Z,15.12
2018-05-12T00:46:56.728Z,15.08
2018-05-12T00:48:50.882Z,15.22
2018-05-12T00:49:49.976Z,15.23
2018-05-12T00:51:43.755Z,15.27
2018-05-12T00:52:43.777Z,15.15
2018-05-12T00:54:37.673Z,15.26
2018-05-12T00:55:36.802Z,15.25
2018-05-12T00:57:30.498Z,15.25
2018-05-12T00:58:30.375Z,15.29
2018-05-12T01:00:23.905Z,15.27
2018-05-12T01:01:24.017Z,15.27
2018-05-12T01:03:17.393Z,15.30
2018-05-12T01:04:16.872Z,15.25
2018-05-12T01:06:12.125Z,15.11
2018-05-12T01:07:10.606Z,15.17
2018-05-12T01:09:03.049Z,15.14
2018-05-12T01:10:03.037Z,15.15
2018-05-12T01:11:56.461Z,15.17
2018-05-12T01:12:56.363Z,15.19
2018-05-12T01:14:50.321Z,15.11
2018-05-12T01:15:50.551Z,15.10
2018-05-12T01:17:42.999Z,15.03
2018-05-12T01:18:42.727Z,15.01
2018-05-12T01:20:35.982Z,14.85
2018-05-12T01:21:35.659Z,14.89
2018-05-12T01:23:29.480Z,14.85
2018-05-12T01:24:29.139Z,14.79
2018-05-12T01:26:22.513Z,14.63
2018-05-12T01:27:22.727Z,14.67
2018-05-12T01:29:16.073Z,14.59
2018-05-12T01:30:15.877Z,14.49
2018-05-12T01:32:09.300Z,14.46
2018-05-12T01:33:09.794Z,14.31
2018-05-12T01:35:02.283Z,14.36
2018-05-12T01:36:02.092Z,14.28
2018-05-12T01:37:55.471Z,14.31
2018-05-12T01:38:55.455Z,14.27
2018-05-12T01:40:48.518Z,14.13
2018-05-12T01:41:48.325Z,14.15
2018-05-12T01:43:41.883Z,14.15
2018-05-12T01:44:41.695Z,14.01
2018-05-12T01:46:34.804Z,14.04
2018-05-12T01:47:35.139Z,14.08
2018-05-12T01:49:27.968Z,14.05
2018-05-12T01:50:27.924Z,13.94
2018-05-12T01:52:21.564Z,13.80
2018-05-12T01:53:21.284Z,13.86
2018-05-12T01:55:15.966Z,13.72
2018-05-12T01:56:14.648Z,13.78
2018-05-12T01:58:09.056Z,13.80
2018-05-12T01:59:09.264Z,13.73
2018-05-12T02:01:02.622Z,13.67
2018-05-12T02:02:02.379Z,13.63
2018-05-12T02:03:55.416Z,13.60
2018-05-12T02:04:55.241Z,13.53
2018-05-12T02:06:48.641Z,13.57
2018-05-12T02:07:48.607Z,13.51
2018-05-12T02:09:42.570Z,13.45
2018-05-12T02:10:41.974Z,13.49
2018-05-12T02:12:35.279Z,13.49
2018-05-12T02:13:35.913Z,13.40
2018-05-12T02:15:28.722Z,13.39
2018-05-12T02:16:28.298Z,13.36
2018-05-12T02:18:21.691Z,13.45
2018-05-12T02:19:21.646Z,13.38
2018-05-12T02:21:15.072Z,13.38
2018-05-12T02:22:15.028Z,13.35
2018-05-12T02:24:08.753Z,13.23
2018-05-12T02:25:08.398Z,13.23
2018-05-12T02:27:01.775Z,13.21
2018-05-12T02:28:01.743Z,13.29
2018-05-12T02:29:54.764Z,13.06
2018-05-12T02:30:54.638Z,13.08
2018-05-12T02:32:47.769Z,12.96
2018-05-12T02:33:47.482Z,12.93
2018-05-12T02:35:40.391Z,12.91
2018-05-12T02:36:40.348Z,13.04
2018-05-12T02:38:33.439Z,12.98
2018-05-12T02:39:33.213Z,12.90
2018-05-12T02:41:26.717Z,12.95
2018-05-12T02:42:26.583Z,12.90
2018-05-12T02:44:20.541Z,12.90
2018-05-12T02:45:19.952Z,12.95
2018-05-12T02:47:13.333Z,12.88
2018-05-12T02:48:13.303Z,12.95
2018-05-12T02:50:06.773Z,13.02
2018-05-12T02:51:06.665Z,13.02
2018-05-12T02:53:00.116Z,13.13
2018-05-12T02:54:00.031Z,13.08
2018-05-12T02:55:53.406Z,13.09
2018-05-12T02:56:53.390Z,13.11
2018-05-12T02:58:46.812Z,13.13
2018-05-12T02:59:46.757Z,13.13
2018-05-12T03:01:39.774Z,13.13
2018-05-12T03:02:39.616Z,13.09
2018-05-12T03:04:32.513Z,13.16
2018-05-12T03:05:32.486Z,13.11
2018-05-12T03:07:25.420Z,13.06
2018-05-12T03:08:25.349Z,13.11
2018-05-12T03:10:20.002Z,13.11
2018-05-12T03:11:19.715Z,13.09
2018-05-12T03:13:13.087Z,12.98
2018-05-12T03:14:13.070Z,13.01
2018-05-12T03:16:06.647Z,12.99
2018-05-12T03:17:06.444Z,12.99
2018-05-12T03:18:59.330Z,13.01
2018-05-12T03:19:59.300Z,12.91
2018-05-12T03:21:52.694Z,12.90
2018-05-12T03:22:52.653Z,12.88
2018-05-12T03:24:46.270Z,12.84
2018-05-12T03:25:46.025Z,12.77
2018-05-12T03:27:39.156Z,12.83
2018-05-12T03:28:38.897Z,12.80
2018-05-12T03:30:31.982Z,12.84
2018-05-12T03:31:31.756Z,12.79
2018-05-12T03:33:25.242Z,12.66
2018-05-12T03:34:25.124Z,12.66
2018-05-12T03:36:20.065Z,12.69
2018-05-12T03:37:18.479Z,12.65
2018-05-12T03:39:13.409Z,12.68
2018-05-12T03:40:11.871Z,12.77
2018-05-12T03:42:06.613Z,12.73
2018-05-12T03:43:06.202Z,12.68
2018-05-12T03:44:59.619Z,12.68
2018-05-12T03:45:59.837Z,12.72
2018-05-12T03:47:52.999Z,12.71
2018-05-12T03:48:52.452Z,12.61
2018-05-12T03:50:46.161Z,12.63
2018-05-12T03:51:45.805Z,12.54
2018-05-12T03:53:40.607Z,12.65
2018-05-12T03:54:40.772Z,12.65
2018-05-12T03:56:33.960Z,12.62
2018-05-12T03:57:33.537Z,12.55
2018-05-12T03:59:26.944Z,12.58
2018-05-12T04:00:26.891Z,12.58
2018-05-12T04:02:20.340Z,12.63
2018-05-12T04:03:20.281Z,12.66
2018-05-12T04:05:14.079Z,12.68
2018-05-12T04:06:13.652Z,12.61
2018-05-12T04:08:06.745Z,12.66
2018-05-12T04:09:06.539Z,12.68
2018-05-12T04:10:59.474Z,12.72
2018-05-12T04:11:59.381Z,12.63
2018-05-12T04:13:54.004Z,12.77
2018-05-12T04:14:53.763Z,12.88
2018-05-12T04:16:48.107Z,12.88
2018-05-12T04:17:48.079Z,12.83
2018-05-12T04:19:41.298Z,12.96
2018-05-12T04:20:40.960Z,12.98
2018-05-12T04:22:34.909Z,13.01
2018-05-12T04:23:34.863Z,12.98
2018-05-12T04:25:28.279Z,12.99
2018-05-12T04:26:28.823Z,13.04
2018-05-12T04:28:21.176Z,13.02
2018-05-12T04:29:21.673Z,13.06
2018-05-12T04:31:14.006Z,13.09
2018-05-12T04:32:13.982Z,13.20
2018-05-12T04:34:06.857Z,13.26
2018-05-12T04:35:06.839Z,13.13
2018-05-12T04:37:00.247Z,13.19
2018-05-12T04:38:00.201Z,13.27
2018-05-12T04:39:53.108Z,13.20
2018-05-12T04:40:53.091Z,13.35
2018-05-12T04:42:46.628Z,13.39
2018-05-12T04:43:46.437Z,13.40
2018-05-12T04:45:39.966Z,13.60
2018-05-12T04:46:39.796Z,13.72
2018-05-12T04:48:34.479Z,13.73
2018-05-12T04:49:33.513Z,13.75
2018-05-12T04:51:26.391Z,13.86
2018-05-12T04:52:26.372Z,13.78
2018-05-12T04:54:19.414Z,13.76
2018-05-12T04:55:19.237Z,13.83
2018-05-12T04:57:12.818Z,13.91
2018-05-12T04:58:12.607Z,13.85
2018-05-12T05:00:06.353Z,13.96
2018-05-12T05:01:05.969Z,14.00
2018-05-12T05:02:59.662Z,13.94
2018-05-12T05:03:59.324Z,13.88
2018-05-12T05:05:53.566Z,14.08
2018-05-12T05:06:53.278Z,14.08
2018-05-12T05:08:48.056Z,14.08
2018-05-12T05:09:48.018Z,14.19
2018-05-12T05:11:41.376Z,14.28
2018-05-12T05:12:41.351Z,14.45
2018-05-12T05:14:34.722Z,14.92
2018-05-12T05:15:34.703Z,15.12
2018-05-12T05:17:28.662Z,15.40
2018-05-12T05:18:28.684Z,15.54
2018-05-12T05:20:21.542Z,16.02
2018-05-12T05:21:21.382Z,16.14
2018-05-12T05:23:14.780Z,16.59
2018-05-12T05:24:14.823Z,16.72
2018-05-12T05:26:08.190Z,17.17
2018-05-12T05:27:08.476Z,17.34
2018-05-12T05:29:01.530Z,17.65
2018-05-12T05:30:01.199Z,17.81
2018-05-12T05:31:54.852Z,18.03
2018-05-12T05:32:54.552Z,18.09
2018-05-12T05:34:47.836Z,18.05
2018-05-12T05:35:47.445Z,18.05
2018-05-12T05:37:40.775Z,18.13
2018-05-12T05:38:40.390Z,18.17
2018-05-12T05:40:34.226Z,18.28
2018-05-12T05:41:34.169Z,18.39
2018-05-12T05:43:27.495Z,18.66
2018-05-12T05:44:27.524Z,18.68
2018-05-12T05:46:20.885Z,18.86
2018-05-12T05:47:20.763Z,19.07
2018-05-12T05:49:15.193Z,19.32
2018-05-12T05:50:15.228Z,19.50
2018-05-12T05:52:10.211Z,19.45
2018-05-12T05:53:09.512Z,19.63
2018-05-12T05:55:03.515Z,19.79
2018-05-12T05:56:03.489Z,19.97
2018-05-12T05:57:56.756Z,20.15
2018-05-12T05:58:56.018Z,20.27
2018-05-12T06:00:49.400Z,20.48
2018-05-12T06:01:49.305Z,20.60
2018-05-12T06:03:44.302Z,20.82
2018-05-12T06:04:43.732Z,20.86
2018-05-12T06:06:38.691Z,21.03
2018-05-12T06:07:38.076Z,21.04
2018-05-12T06:09:31.023Z,21.10
2018-05-12T06:10:30.960Z,21.22
2018-05-12T06:12:24.437Z,21.47
2018-05-12T06:13:24.379Z,21.55
2018-05-12T06:15:16.884Z,21.74
2018-05-12T06:16:16.854Z,21.88
2018-05-12T06:18:10.974Z,22.03
2018-05-12T06:19:10.597Z,22.06
2018-05-12T06:21:03.141Z,22.15
2018-05-12T06:22:03.128Z,22.28
2018-05-12T06:23:56.039Z,22.43
2018-05-12T06:24:56.027Z,22.43
2018-05-12T06:26:49.159Z,22.52
2018-05-12T06:27:48.994Z,22.59
2018-05-12T06:29:41.841Z,22.91
2018-05-12T06:30:41.803Z,22.91
2018-05-12T06:32:35.199Z,23.18
2018-05-12T06:33:35.244Z,23.21
2018-05-12T06:35:28.092Z,23.41
2018-05-12T06:36:28.104Z,23.56
2018-05-12T06:38:21.373Z,23.56
2018-05-12T06:39:21.271Z,23.60
2018-05-12T06:41:14.718Z,23.46
2018-05-12T06:42:14.772Z,23.54
2018-05-12T06:44:08.276Z,23.54
2018-05-12T06:45:09.161Z,23.66
2018-05-12T06:47:00.724Z,23.79
2018-05-12T06:48:00.338Z,23.71
2018-05-12T06:49:54.113Z,23.54
2018-05-12T06:50:54.037Z,23.61
2018-05-12T06:52:47.256Z,23.61
2018-05-12T06:53:47.505Z,23.66
2018-05-12T06:55:42.176Z,23.79
2018-05-12T06:56:41.857Z,23.89
2018-05-12T06:58:34.956Z,23.82
2018-05-12T06:59:34.521Z,23.84
2018-05-12T07:01:27.926Z,23.76
2018-05-12T07:02:27.899Z,23.78
2018-05-12T07:04:21.315Z,23.84
2018-05-12T07:05:21.203Z,23.82
2018-05-12T07:07:14.590Z,23.98
2018-05-12T07:08:14.600Z,23.98
2018-05-12T07:10:08.068Z,24.04
2018-05-12T07:11:07.494Z,23.98
2018-05-12T07:13:00.401Z,23.92
2018-05-12T07:14:00.358Z,23.88
2018-05-12T07:15:53.199Z,23.88
2018-05-12T07:16:53.258Z,23.94
2018-05-12T07:18:46.141Z,23.78
2018-05-12T07:19:46.159Z,23.85
2018-05-12T07:21:39.039Z,23.88
2018-05-12T07:22:39.075Z,23.86
2018-05-12T07:24:32.047Z,23.91
2018-05-12T07:25:31.981Z,23.88
2018-05-12T07:27:25.135Z,23.92
2018-05-12T07:28:25.416Z,24.04
2018-05-12T07:30:19.755Z,24.16
2018-05-12T07:31:18.799Z,24.28
2018-05-12T07:33:11.628Z,24.29
2018-05-12T07:34:11.663Z,24.23
2018-05-12T07:36:04.601Z,24.41
2018-05-12T07:37:06.074Z,24.44
2018-05-12T07:38:58.066Z,24.44
2018-05-12T07:39:57.656Z,24.40
2018-05-12T07:41:51.462Z,24.45
2018-05-12T07:42:51.304Z,24.51
2018-05-12T07:44:44.754Z,24.58
2018-05-12T07:45:45.793Z,24.55
2018-05-12T07:47:37.762Z,24.81
2018-05-12T07:48:37.736Z,24.78
2018-05-12T07:50:30.663Z,24.74
2018-05-12T07:51:30.701Z,24.81
2018-05-12T07:53:24.066Z,24.90
2018-05-12T07:54:23.980Z,24.85
2018-05-12T07:56:17.821Z,24.78
2018-05-12T07:57:17.447Z,24.90
2018-05-12T07:59:10.583Z,24.84
2018-05-12T08:00:10.478Z,24.75
2018-05-12T08:02:04.216Z,24.85
2018-05-12T08:03:03.929Z,24.82
2018-05-12T08:04:57.713Z,24.85
2018-05-12T08:05:57.742Z,24.89
2018-05-12T08:07:51.797Z,24.97
2018-05-12T08:08:51.645Z,24.94
2018-05-12T08:10:46.840Z,25.04
2018-05-12T08:11:44.984Z,25.08
2018-05-12T08:13:38.462Z,25.15
2018-05-12T08:14:38.394Z,25.16
2018-05-12T08:16:32.167Z,25.15
2018-05-12T08:17:31.816Z,25.19
2018-05-12T08:19:25.736Z,25.31
2018-05-12T08:20:25.005Z,25.16
2018-05-12T08:22:20.065Z,25.14
2018-05-12T08:23:18.414Z,25.04
2018-05-12T08:25:12.482Z,24.96
2018-05-12T08:26:11.610Z,25.04
2018-05-12T08:28:05.331Z,25.09
2018-05-12T08:29:04.970Z,25.00
2018-05-12T08:30:58.710Z,25.14
2018-05-12T08:31:58.806Z,25.22
2018-05-12T08:34:05.916Z,25.06
2018-05-12T08:34:52.754Z,25.03
2018-05-12T08:36:44.721Z,25.08
2018-05-12T08:37:45.191Z,25.03
2018-05-12T08:39:38.089Z,25.16
2018-05-12T08:40:37.725Z,25.11
2018-05-12T08:42:31.445Z,25.01
2018-05-12T08:43:31.075Z,25.01
2018-05-12T08:45:23.928Z,25.09
2018-05-12T08:46:23.931Z,25.09
2018-05-12T08:48:17.386Z,25.14
2018-05-12T08:49:16.928Z,25.16
2018-05-12T08:51:10.503Z,25.16
2018-05-12T08:52:09.818Z,25.22
2018-05-12T08:54:03.235Z,24.96
2018-05-12T08:55:03.208Z,24.91
2018-05-12T08:56:56.334Z,24.90
2018-05-12T08:57:56.134Z,25.00
2018-05-12T08:59:49.269Z,24.90
2018-05-12T09:00:49.032Z,24.89
2018-05-12T09:02:42.172Z,24.99
2018-05-12T09:03:41.945Z,24.93
2018-05-12T09:05:34.848Z,24.76
2018-05-12T09:06:34.814Z,24.82
2018-05-12T09:08:27.704Z,24.82
2018-05-12T09:09:27.730Z,24.74
2018-05-12T09:11:20.836Z,24.99
2018-05-12T09:12:20.586Z,25.06
2018-05-12T09:14:13.512Z,24.93
2018-05-12T09:15:13.493Z,24.89
2018-05-12T09:17:07.122Z,24.89
2018-05-12T09:18:06.885Z,24.86
2018-05-12T09:20:00.522Z,24.79
2018-05-12T09:21:00.264Z,24.91
2018-05-12T09:22:53.918Z,24.86
2018-05-12T09:23:53.693Z,24.84
2018-05-12T09:25:47.138Z,24.96
2018-05-12T09:26:47.022Z,24.94
2018-05-12T09:28:40.454Z,24.91
2018-05-12T09:29:40.419Z,24.93
2018-05-12T09:31:34.092Z,24.79
2018-05-12T09:32:33.815Z,24.81
2018-05-12T09:34:26.927Z,24.75
2018-05-12T09:35:26.711Z,24.74
2018-05-12T09:37:20.486Z,24.71
2018-05-12T09:38:19.606Z,24.79
2018-05-12T09:40:13.009Z,24.82
2018-05-12T09:41:12.975Z,24.93
2018-05-12T09:43:06.136Z,24.97
2018-05-12T09:44:05.888Z,24.96
2018-05-12T09:45:59.049Z,25.09
2018-05-12T09:46:58.781Z,25.16
2018-05-12T09:48:51.717Z,25.26
2018-05-12T09:49:51.664Z,25.23
2018-05-12T09:51:45.343Z,25.11
2018-05-12T09:52:45.063Z,25.21
2018-05-12T09:54:37.968Z,25.11
2018-05-12T09:55:37.937Z,25.01
2018-05-12T09:57:31.971Z,25.09
2018-05-12T09:58:31.418Z,24.97
2018-05-12T10:00:24.806Z,24.85
2018-05-12T10:01:24.745Z,24.89
2018-05-12T10:03:18.692Z,24.81
2018-05-12T10:04:18.121Z,24.70
2018-05-12T10:06:11.513Z,24.74
2018-05-12T10:07:11.506Z,24.70
2018-05-12T10:09:04.726Z,24.82
2018-05-12T10:10:04.400Z,24.74
2018-05-12T10:11:57.621Z,24.76
2018-05-12T10:12:57.315Z,24.81
2018-05-12T10:14:50.462Z,24.65
2018-05-12T10:15:50.243Z,24.55
2018-05-12T10:17:43.602Z,24.59
2018-05-12T10:18:43.915Z,24.70
2018-05-12T10:20:36.512Z,24.66
2018-05-12T10:21:36.497Z,24.62
2018-05-12T10:23:29.726Z,24.78
2018-05-12T10:24:29.364Z,24.71
2018-05-12T10:26:22.561Z,24.96
2018-05-12T10:27:22.273Z,24.93
2018-05-12T10:29:15.667Z,24.96
2018-05-12T10:30:15.643Z,25.00
2018-05-12T10:32:08.557Z,24.97
2018-05-12T10:33:08.547Z,25.08
2018-05-12T10:35:02.979Z,24.99
2018-05-12T10:36:02.928Z,25.03
2018-05-12T10:37:56.123Z,24.94
2018-05-12T10:38:55.823Z,24.96
2018-05-12T10:40:48.850Z,24.90
2018-05-12T10:41:48.739Z,24.85
2018-05-12T10:43:41.904Z,25.01
2018-05-12T10:44:41.658Z,25.06
2018-05-12T10:46:35.264Z,25.11
2018-05-12T10:47:34.979Z,25.09
2018-05-12T10:49:28.454Z,25.15
2018-05-12T10:50:28.381Z,25.16
2018-05-12T10:52:22.130Z,25.21
2018-05-12T10:53:21.259Z,25.15
2018-05-12T10:55:14.785Z,25.22
2018-05-12T10:56:14.138Z,25.27
2018-05-12T10:58:07.551Z,25.04
2018-05-12T10:59:07.771Z,25.03
2018-05-12T11:01:00.625Z,25.06
2018-05-12T11:02:00.476Z,25.19
2018-05-12T11:03:54.388Z,25.01
2018-05-12T11:04:53.795Z,25.06
2018-05-12T11:06:47.028Z,25.08
2018-05-12T11:07:46.743Z,25.00
2018-05-12T11:09:39.628Z,25.08
2018-05-12T11:10:39.603Z,25.12
2018-05-12T11:12:32.783Z,25.03
2018-05-12T11:13:32.501Z,25.04
2018-05-12T11:15:26.180Z,24.99
2018-05-12T11:16:25.916Z,24.94
2018-05-12T11:18:18.841Z,24.94
2018-05-12T11:19:18.766Z,25.04
2018-05-12T11:21:11.948Z,25.00
2018-05-12T11:22:11.685Z,25.14
2018-05-12T11:24:05.303Z,25.11
2018-05-12T11:25:05.034Z,25.04
2018-05-12T11:26:58.210Z,25.19
2018-05-12T11:27:57.937Z,25.19
2018-05-12T11:29:51.360Z,25.16
2018-05-12T11:30:51.357Z,25.16
2018-05-12T11:32:45.007Z,25.33
2018-05-12T11:33:44.724Z,25.28
2018-05-12T11:35:38.357Z,25.30
2018-05-12T11:36:38.108Z,25.38
2018-05-12T11:38:31.782Z,25.37
2018-05-12T11:39:31.501Z,25.33
2018-05-12T11:41:24.900Z,25.31
2018-05-12T11:42:25.074Z,25.26
2018-05-12T11:44:18.059Z,25.26
2018-05-12T11:45:17.757Z,25.09
2018-05-12T11:47:10.883Z,24.97
2018-05-12T11:48:10.652Z,25.04
2018-05-12T11:50:03.552Z,25.04
2018-05-12T11:51:03.554Z,24.81
2018-05-12T11:52:56.732Z,24.91
2018-05-12T11:53:56.449Z,24.93
2018-05-12T11:55:49.602Z,24.99
2018-05-12T11:56:49.403Z,25.03
2018-05-12T11:58:42.245Z,24.99
2018-05-12T11:59:42.208Z,25.14
2018-05-12T12:01:35.828Z,25.18
2018-05-12T12:02:35.659Z,25.04
2018-05-12T12:04:28.733Z,25.01
2018-05-12T12:05:28.503Z,25.01
2018-05-12T12:07:21.883Z,25.06
2018-05-12T12:08:21.857Z,25.08
2018-05-12T12:10:15.627Z,24.94
2018-05-12T12:11:14.749Z,25.03
2018-05-12T12:13:07.971Z,25.06
2018-05-12T12:14:07.686Z,25.16
2018-05-12T12:16:01.070Z,25.09
2018-05-12T12:17:01.043Z,25.18
2018-05-12T12:18:54.441Z,25.31
2018-05-12T12:19:54.421Z,25.28
2018-05-12T12:21:47.587Z,25.33
2018-05-12T12:22:47.297Z,25.37
2018-05-12T12:24:40.465Z,25.31
2018-05-12T12:25:40.217Z,25.37
2018-05-12T12:27:33.848Z,25.36
2018-05-12T12:28:33.571Z,25.31
2018-05-12T12:30:26.851Z,25.37
2018-05-12T12:31:26.461Z,25.41
2018-05-12T12:33:19.665Z,25.36
2018-05-12T12:34:19.406Z,25.34
2018-05-12T12:36:12.786Z,25.16
2018-05-12T12:37:12.760Z,25.19
2018-05-12T12:39:05.966Z,25.16
2018-05-12T12:40:05.660Z,25.23
2018-05-12T12:41:59.032Z,25.18
2018-05-12T12:42:59.019Z,25.28
2018-05-12T12:44:52.155Z,25.21
2018-05-12T12:45:51.929Z,25.12
2018-05-12T12:47:45.038Z,25.19
2018-05-12T12:48:44.864Z,25.16
2018-05-12T12:50:38.269Z,25.04
2018-05-12T12:51:37.763Z,25.14
2018-05-12T12:53:30.595Z,25.15
2018-05-12T12:54:30.589Z,25.16
2018-05-12T12:56:24.117Z,25.11
2018-05-12T12:57:23.964Z,25.11
2018-05-12T12:59:16.868Z,25.22
2018-05-12T13:00:16.848Z,25.22
2018-05-12T13:02:10.576Z,25.15
2018-05-12T13:03:10.239Z,25.16
2018-05-12T13:05:03.650Z,25.34
2018-05-12T13:06:03.606Z,25.30
2018-05-12T13:07:57.217Z,25.28
2018-05-12T13:08:56.989Z,25.26
2018-05-12T13:10:50.160Z,25.36
2018-05-12T13:11:49.903Z,25.43
2018-05-12T13:13:42.842Z,25.52
2018-05-12T13:14:42.778Z,25.52
2018-05-12T13:16:35.677Z,25.53
2018-05-12T13:17:35.670Z,25.53
2018-05-12T13:19:28.791Z,25.67
2018-05-12T13:20:28.572Z,25.58
2018-05-12T13:22:21.730Z,25.55
2018-05-12T13:23:21.444Z,25.56
2018-05-12T13:25:14.422Z,25.58
2018-05-12T13:26:14.321Z,25.53
2018-05-12T13:28:07.401Z,25.49
2018-05-12T13:29:07.219Z,25.52
2018-05-12T13:31:00.145Z,25.58
2018-05-12T13:32:00.682Z,25.56
2018-05-12T13:33:53.022Z,25.61
2018-05-12T13:34:53.002Z,25.66
2018-05-12T13:36:46.102Z,25.64
2018-05-12T13:37:45.889Z,25.68
2018-05-12T13:39:39.055Z,25.51
2018-05-12T13:40:38.769Z,25.58
2018-05-12T13:42:31.970Z,25.61
2018-05-12T13:43:31.665Z,25.61
2018-05-12T13:45:24.860Z,25.67
2018-05-12T13:46:24.563Z,25.68
2018-05-12T13:48:17.463Z,25.81
2018-05-12T13:49:17.452Z,25.82
2018-05-12T13:51:11.141Z,25.82
2018-05-12T13:52:10.844Z,25.83
2018-05-12T13:54:04.240Z,25.95
2018-05-12T13:55:04.223Z,25.95
2018-05-12T13:56:57.692Z,26.03
2018-05-12T13:57:57.104Z,26.00
2018-05-12T13:59:50.534Z,26.04
2018-05-12T14:00:50.494Z,25.96
2018-05-12T14:02:44.156Z,26.08
2018-05-12T14:03:43.880Z,26.04
2018-05-12T14:05:37.288Z,26.05
2018-05-12T14:06:37.547Z,26.08
2018-05-12T14:08:30.435Z,26.10
2018-05-12T14:09:30.147Z,26.10
2018-05-12T14:11:23.790Z,26.03
2018-05-12T14:12:23.548Z,26.00
2018-05-12T14:14:17.282Z,26.07
2018-05-12T14:15:16.989Z,26.05
2018-05-12T14:17:10.063Z,26.05
2018-05-12T14:18:09.851Z,26.04
2018-05-12T14:20:02.988Z,26.04
2018-05-12T14:21:02.690Z,25.92
2018-05-12T14:22:56.103Z,25.98
2018-05-12T14:23:56.077Z,26.08
2018-05-12T14:25:49.041Z,26.07
2018-05-12T14:26:49.201Z,26.04
2018-05-12T14:28:43.227Z,26.04
2018-05-12T14:29:42.361Z,26.07
2018-05-12T14:31:36.019Z,26.01
2018-05-12T14:32:35.754Z,25.93
2018-05-12T14:34:28.729Z,25.98
2018-05-12T14:35:28.643Z,25.95
2018-05-12T14:37:21.787Z,25.93
2018-05-12T14:38:21.838Z,25.93
2018-05-12T14:40:15.047Z,26.00
2018-05-12T14:41:14.413Z,25.96
2018-05-12T14:43:08.087Z,25.83
2018-05-12T14:44:07.818Z,25.93
2018-05-12T14:46:01.277Z,25.86
2018-05-12T14:47:00.741Z,25.83
2018-05-12T14:48:54.165Z,25.85
2018-05-12T14:49:54.107Z,25.85
2018-05-12T14:51:47.242Z,25.85
2018-05-12T14:52:46.993Z,25.86
2018-05-12T14:54:40.616Z,25.85
2018-05-12T14:55:40.371Z,25.85
2018-05-12T14:57:33.505Z,25.90
2018-05-12T14:58:33.285Z,25.81
2018-05-12T15:00:26.911Z,25.81
2018-05-12T15:01:26.614Z,25.89
2018-05-12T15:03:19.701Z,25.74
2018-05-12T15:04:19.623Z,25.83
2018-05-12T15:06:12.787Z,25.85
2018-05-12T15:07:12.519Z,25.83
2018-05-12T15:09:05.444Z,25.81
2018-05-12T15:10:05.447Z,25.95
2018-05-12T15:11:58.601Z,25.93
2018-05-12T15:12:58.313Z,25.92
2018-05-12T15:14:51.492Z,25.93
2018-05-12T15:15:51.238Z,25.98
2018-05-12T15:17:44.913Z,25.85
2018-05-12T15:18:44.576Z,25.86
2018-05-12T15:20:38.282Z,25.77
2018-05-12T15:21:37.991Z,25.64
2018-05-12T15:23:31.628Z,25.53
2018-05-12T15:24:31.366Z,25.56
2018-05-12T15:26:24.800Z,25.46
2018-05-12T15:27:24.751Z,25.43
2018-05-12T15:29:17.657Z,25.43
2018-05-12T15:30:17.647Z,25.36
2018-05-12T15:32:11.056Z,25.43
2018-05-12T15:33:11.026Z,25.34
2018-05-12T15:35:04.691Z,25.31
2018-05-12T15:36:04.395Z,25.28
2018-05-12T15:37:57.591Z,25.23
2018-05-12T15:38:57.304Z,25.28
2018-05-12T15:40:50.964Z,25.21
2018-05-12T15:41:50.665Z,25.19
2018-05-12T15:43:43.960Z,25.16
2018-05-12T15:44:43.590Z,25.19
2018-05-12T15:46:37.310Z,25.16
2018-05-12T15:47:37.310Z,25.15
2018-05-12T15:49:31.088Z,25.04
2018-05-12T15:50:30.717Z,24.93
2018-05-12T15:52:24.702Z,24.90
2018-05-12T15:53:23.601Z,24.93
2018-05-12T15:55:17.044Z,24.84
2018-05-12T15:56:16.963Z,24.70
2018-05-12T15:58:09.891Z,24.74
2018-05-12T15:59:09.862Z,24.74
2018-05-12T16:01:03.496Z,24.74
2018-05-12T16:02:03.247Z,24.71
2018-05-12T16:03:56.653Z,24.74
2018-05-12T16:04:56.809Z,24.71
2018-05-12T16:06:49.708Z,24.78
2018-05-12T16:07:49.517Z,24.75
2018-05-12T16:09:42.480Z,24.85
2018-05-12T16:10:42.402Z,24.82
2018-05-12T16:12:35.478Z,24.84
2018-05-12T16:13:35.304Z,24.85
2018-05-12T16:15:28.523Z,24.84
2018-05-12T16:16:28.485Z,24.82
2018-05-12T16:18:21.711Z,24.86
2018-05-12T16:19:21.364Z,24.90
2018-05-12T16:21:14.784Z,24.90
2018-05-12T16:22:14.738Z,24.96
2018-05-12T16:24:07.729Z,24.91
2018-05-12T16:25:07.648Z,24.96
2018-05-12T16:27:01.251Z,24.89
2018-05-12T16:28:01.047Z,24.86
2018-05-12T16:29:54.417Z,24.82
2018-05-12T16:30:54.407Z,24.76
2018-05-12T16:32:48.079Z,24.75
2018-05-12T16:33:47.808Z,24.82
2018-05-12T16:35:40.979Z,24.79
2018-05-12T16:36:40.698Z,24.79
2018-05-12T16:38:33.603Z,24.75
2018-05-12T16:39:33.610Z,24.75
2018-05-12T16:41:26.522Z,24.71
2018-05-12T16:42:26.493Z,24.78
2018-05-12T16:44:19.415Z,24.71
2018-05-12T16:45:19.405Z,24.65
2018-05-12T16:47:12.532Z,24.60
2018-05-12T16:48:12.312Z,24.59
2018-05-12T16:50:05.514Z,24.55
2018-05-12T16:51:05.258Z,24.60
2018-05-12T16:52:58.592Z,24.59
2018-05-12T16:53:58.660Z,24.62
2018-05-12T16:55:51.446Z,24.53
2018-05-12T16:56:51.395Z,24.51
2018-05-12T16:58:45.127Z,24.55
2018-05-12T16:59:45.014Z,24.58
2018-05-12T17:01:38.796Z,24.47
2018-05-12T17:02:37.889Z,24.52
2018-05-12T17:04:30.984Z,24.43
2018-05-12T17:05:30.885Z,24.41
2018-05-12T17:07:24.603Z,24.34
2018-05-12T17:08:24.594Z,24.29
2018-05-12T17:10:22.715Z,24.25
2018-05-12T17:11:21.226Z,24.22
2018-05-12T17:13:13.086Z,24.25
2018-05-12T17:14:12.852Z,24.21
2018-05-12T17:16:04.661Z,24.13
2018-05-12T17:17:04.353Z,24.16
2018-05-12T17:18:57.585Z,24.13
2018-05-12T17:19:57.649Z,24.16
2018-05-12T17:21:51.602Z,24.16
2018-05-12T17:22:51.384Z,24.10
2018-05-12T17:24:45.581Z,24.15
2018-05-12T17:25:44.131Z,24.04
2018-05-12T17:27:59.757Z,24.04
2018-05-12T17:31:36.275Z,23.98
2018-05-12T17:34:49.580Z,23.92
2018-05-12T17:38:04.350Z,23.85
2018-05-12T17:39:04.463Z,23.74
2018-05-12T17:41:50.350Z,23.81
2018-05-12T17:42:48.832Z,23.84
2018-05-12T17:45:33.921Z,23.76
2018-05-12T17:46:34.051Z,23.71
2018-05-12T17:48:27.636Z,23.63
2018-05-12T17:51:21.217Z,23.66
2018-05-12T17:52:20.323Z,23.66
2018-05-12T17:54:31.064Z,23.56
2018-05-12T17:57:08.522Z,23.63
2018-05-12T17:58:07.973Z,23.52
2018-05-12T18:00:01.171Z,23.56
2018-05-12T18:01:01.234Z,23.52
2018-05-12T18:02:54.656Z,23.51
2018-05-12T18:03:54.459Z,23.55
2018-05-12T18:05:47.880Z,23.48
2018-05-12T18:06:47.225Z,23.44
2018-05-12T18:08:43.993Z,23.37
2018-05-12T18:11:35.431Z,23.25
2018-05-12T18:12:35.309Z,23.22
2018-05-12T18:14:29.466Z,23.15
2018-05-12T18:16:43.251Z,23.11
2018-05-12T18:17:42.890Z,23.03
2018-05-12T18:19:36.633Z,23.07
2018-05-12T18:20:37.540Z,22.99
2018-05-12T18:22:29.614Z,23.01
2018-05-12T18:25:36.676Z,22.88
2018-05-12T18:28:21.012Z,22.80
2018-05-12T18:29:20.668Z,22.77
2018-05-12T18:31:15.313Z,22.76
2018-05-12T18:34:45.886Z,22.62
2018-05-12T18:38:40.379Z,22.41
2018-05-12T18:44:11.015Z,22.25
2018-05-12T18:45:11.147Z,22.13
2018-05-12T18:47:58.069Z,22.06
2018-05-12T18:48:55.050Z,22.01
2018-05-12T18:50:46.579Z,21.93
2018-05-12T18:51:47.204Z,21.90
2018-05-12T18:54:33.472Z,21.82
2018-05-12T18:57:28.956Z,21.71
2018-05-12T19:00:16.963Z,21.59
2018-05-12T19:01:17.030Z,21.48
2018-05-12T19:03:10.427Z,21.44
2018-05-12T19:04:10.342Z,21.37